sensor_id;sensor_type;location;lat;lon;timestamp;P1;durP1;ratioP1;P2;durP2;ratioP2
64595;SDS011;51003;51.628;6.670;2023-02-13T09:35:30;14.17;;;8.33;;
64595;SDS011;51003;51.628;6.670;2023-02-13T09:37:55;15.47;;;9.23;;
64595;SDS011;51003;51.628;6.670;2023-02-13T09:40:28;16.43;;;8.03;;
64595;SDS011;51003;51.628;6.670;2023-02-13T09:43:02;12.80;;;7.50;;
64595;SDS011;51003;51.628;6.670;2023-02-13T09:45:30;11.70;;;7.90;;
64595;SDS011;51003;51.628;6.670;2023-02-13T09:47:55;11.83;;;7.50;;
64595;SDS011;51003;51.628;6.670;2023-02-13T09:50:22;14.20;;;8.37;;
64595;SDS011;51003;51.628;6.670;2023-02-13T09:52:50;14.53;;;8.20;;
64595;SDS011;51003;51.628;6.670;2023-02-13T09:55:18;12.60;;;8.10;;
64595;SDS011;51003;51.628;6.670;2023-02-13T09:57:51;13.13;;;7.87;;
64595;SDS011;51003;51.628;6.670;2023-02-13T10:11:03;14.13;;;8.00;;
64595;SDS011;51003;51.628;6.670;2023-02-13T10:17:03;12.10;;;7.90;;
64595;SDS011;51003;51.628;6.670;2023-02-13T10:19:34;11.60;;;7.90;;
64595;SDS011;51003;51.628;6.670;2023-02-13T10:22:08;13.20;;;8.67;;
64595;SDS011;51003;51.628;6.670;2023-02-13T10:35:43;11.67;;;8.17;;
64595;SDS011;51003;51.628;6.670;2023-02-13T10:38:18;11.87;;;7.97;;
64595;SDS011;51003;51.628;6.670;2023-02-13T10:43:55;12.20;;;8.10;;
64595;SDS011;51003;51.628;6.670;2023-02-13T10:51:49;11.90;;;8.03;;
64595;SDS011;51003;51.628;6.670;2023-02-13T10:57:18;11.03;;;7.87;;
64595;SDS011;51003;51.628;6.670;2023-02-13T11:00:03;12.40;;;8.60;;
64595;SDS011;51003;51.628;6.670;2023-02-13T11:02:30;10.37;;;7.63;;
64595;SDS011;51003;51.628;6.670;2023-02-13T11:05:01;12.73;;;8.33;;
64595;SDS011;51003;51.628;6.670;2023-02-13T11:07:37;12.90;;;7.73;;
64595;SDS011;51003;51.628;6.670;2023-02-13T11:10:04;13.20;;;8.83;;
64595;SDS011;51003;51.628;6.670;2023-02-13T11:12:47;11.10;;;8.23;;
64595;SDS011;51003;51.628;6.670;2023-02-13T11:15:29;9.97;;;7.97;;
64595;SDS011;51003;51.628;6.670;2023-02-13T11:18:00;9.20;;;7.90;;
64595;SDS011;51003;51.628;6.670;2023-02-13T11:20:36;9.40;;;7.80;;
64595;SDS011;51003;51.628;6.670;2023-02-13T11:23:16;10.67;;;8.40;;
64595;SDS011;51003;51.628;6.670;2023-02-13T11:25:52;11.00;;;8.00;;
64595;SDS011;51003;51.628;6.670;2023-02-13T11:28:19;12.63;;;9.13;;
64595;SDS011;51003;51.628;6.670;2023-02-13T11:30:45;9.43;;;8.30;;
64595;SDS011;51003;51.628;6.670;2023-02-13T11:35:41;10.70;;;8.43;;
64595;SDS011;51003;51.628;6.670;2023-02-13T11:38:10;9.90;;;8.60;;
64595;SDS011;51003;51.628;6.670;2023-02-13T11:40:45;14.40;;;10.70;;
64595;SDS011;51003;51.628;6.670;2023-02-13T11:49:17;12.93;;;8.17;;
64595;SDS011;51003;51.628;6.670;2023-02-13T11:51:58;9.80;;;8.03;;
64595;SDS011;51003;51.628;6.670;2023-02-13T11:59:29;10.20;;;7.83;;
64595;SDS011;51003;51.628;6.670;2023-02-13T12:02:08;11.40;;;8.40;;
64595;SDS011;51003;51.628;6.670;2023-02-13T12:04:37;12.03;;;7.97;;
64595;SDS011;51003;51.628;6.670;2023-02-13T12:07:09;9.53;;;8.20;;
64595;SDS011;51003;51.628;6.670;2023-02-13T12:09:42;10.23;;;7.50;;
64595;SDS011;51003;51.628;6.670;2023-02-13T12:12:10;9.30;;;8.40;;
64595;SDS011;51003;51.628;6.670;2023-02-13T12:14:42;8.90;;;7.33;;
64595;SDS011;51003;51.628;6.670;2023-02-13T12:17:14;9.03;;;8.10;;
64595;SDS011;51003;51.628;6.670;2023-02-13T12:25:00;9.80;;;8.30;;
64595;SDS011;51003;51.628;6.670;2023-02-13T12:49:21;8.17;;;7.37;;
64595;SDS011;51003;51.628;6.670;2023-02-13T12:51:44;8.50;;;7.70;;
64595;SDS011;51003;51.628;6.670;2023-02-13T13:16:03;8.47;;;7.53;;
64595;SDS011;51003;51.628;6.670;2023-02-13T13:18:17;11.63;;;7.90;;
64595;SDS011;51003;51.628;6.670;2023-02-13T13:26:50;8.63;;;7.30;;
64595;SDS011;51003;51.628;6.670;2023-02-13T13:31:59;10.93;;;7.53;;
64595;SDS011;51003;51.628;6.670;2023-02-13T13:34:26;7.83;;;7.13;;
64595;SDS011;51003;51.628;6.670;2023-02-13T13:36:57;8.30;;;6.50;;
64595;SDS011;51003;51.628;6.670;2023-02-13T13:47:15;9.03;;;7.10;;
64595;SDS011;51003;51.628;6.670;2023-02-13T13:49:59;7.53;;;6.83;;
64595;SDS011;51003;51.628;6.670;2023-02-13T13:52:30;8.37;;;7.03;;
64595;SDS011;51003;51.628;6.670;2023-02-13T13:55:01;8.30;;;7.07;;
64595;SDS011;51003;51.628;6.670;2023-02-13T14:07:40;7.67;;;6.90;;
64595;SDS011;51003;51.628;6.670;2023-02-13T14:19:01;7.97;;;7.17;;
64595;SDS011;51003;51.628;6.670;2023-02-13T14:21:28;8.83;;;7.27;;
64595;SDS011;51003;51.628;6.670;2023-02-13T14:23:53;7.97;;;7.17;;
64595;SDS011;51003;51.628;6.670;2023-02-13T14:26:25;8.20;;;7.40;;
64595;SDS011;51003;51.628;6.670;2023-02-13T14:28:56;9.77;;;8.00;;
64595;SDS011;51003;51.628;6.670;2023-02-13T14:31:25;10.43;;;7.60;;
64595;SDS011;51003;51.628;6.670;2023-02-13T14:36:30;9.27;;;7.47;;
64595;SDS011;51003;51.628;6.670;2023-02-13T14:41:55;8.23;;;7.20;;
64595;SDS011;51003;51.628;6.670;2023-02-13T14:44:23;9.50;;;7.53;;
64595;SDS011;51003;51.628;6.670;2023-02-13T14:47:02;10.20;;;7.30;;
64595;SDS011;51003;51.628;6.670;2023-02-13T14:49:34;10.10;;;8.53;;
64595;SDS011;51003;51.628;6.670;2023-02-13T14:52:05;14.37;;;7.07;;
64595;SDS011;51003;51.628;6.670;2023-02-13T14:54:32;8.73;;;7.40;;
64595;SDS011;51003;51.628;6.670;2023-02-13T14:57:16;11.47;;;7.57;;
64595;SDS011;51003;51.628;6.670;2023-02-13T14:59:45;12.40;;;7.43;;
64595;SDS011;51003;51.628;6.670;2023-02-13T15:02:29;9.27;;;7.30;;
64595;SDS011;51003;51.628;6.670;2023-02-13T15:04:58;11.50;;;7.57;;
64595;SDS011;51003;51.628;6.670;2023-02-13T15:07:28;19.83;;;8.57;;
64595;SDS011;51003;51.628;6.670;2023-02-13T15:09:57;11.43;;;8.03;;
64595;SDS011;51003;51.628;6.670;2023-02-13T15:12:32;14.33;;;8.00;;
64595;SDS011;51003;51.628;6.670;2023-02-13T15:14:59;13.33;;;8.13;;
64595;SDS011;51003;51.628;6.670;2023-02-13T15:17:30;9.33;;;7.53;;
64595;SDS011;51003;51.628;6.670;2023-02-13T15:20:24;8.83;;;7.87;;
64595;SDS011;51003;51.628;6.670;2023-02-13T15:22:49;11.70;;;7.70;;
64595;SDS011;51003;51.628;6.670;2023-02-13T15:25:28;8.57;;;7.60;;
64595;SDS011;51003;51.628;6.670;2023-02-13T15:27:55;10.40;;;8.30;;
64595;SDS011;51003;51.628;6.670;2023-02-13T15:30:24;14.00;;;8.40;;
64595;SDS011;51003;51.628;6.670;2023-02-13T15:32:58;12.93;;;7.77;;
64595;SDS011;51003;51.628;6.670;2023-02-13T15:37:55;10.50;;;8.50;;
64595;SDS011;51003;51.628;6.670;2023-02-13T15:42:48;13.37;;;9.10;;
64595;SDS011;51003;51.628;6.670;2023-02-13T15:45:17;10.77;;;8.67;;
64595;SDS011;51003;51.628;6.670;2023-02-13T15:47:44;14.00;;;8.93;;
64595;SDS011;51003;51.628;6.670;2023-02-13T15:50:15;13.57;;;8.73;;
64595;SDS011;51003;51.628;6.670;2023-02-13T15:52:46;14.57;;;9.53;;
64595;SDS011;51003;51.628;6.670;2023-02-13T15:55:22;9.93;;;8.10;;
64595;SDS011;51003;51.628;6.670;2023-02-13T15:57:49;13.00;;;8.77;;
64595;SDS011;51003;51.628;6.670;2023-02-13T16:00:19;12.50;;;9.10;;
64595;SDS011;51003;51.628;6.670;2023-02-13T16:02:47;14.50;;;8.70;;
64595;SDS011;51003;51.628;6.670;2023-02-13T16:05:13;12.73;;;9.30;;
64595;SDS011;51003;51.628;6.670;2023-02-13T16:07:46;16.90;;;9.20;;
64595;SDS011;51003;51.628;6.670;2023-02-13T16:12:53;15.87;;;9.47;;
64595;SDS011;51003;51.628;6.670;2023-02-13T16:15:20;18.10;;;9.70;;
64595;SDS011;51003;51.628;6.670;2023-02-13T16:17:46;12.97;;;8.67;;
64595;SDS011;51003;51.628;6.670;2023-02-13T16:27:47;14.07;;;8.73;;
64595;SDS011;51003;51.628;6.670;2023-02-13T16:30:38;22.13;;;9.37;;
64595;SDS011;51003;51.628;6.670;2023-02-13T16:33:33;15.07;;;9.40;;
64595;SDS011;51003;51.628;6.670;2023-02-13T16:36:45;17.77;;;9.63;;
64595;SDS011;51003;51.628;6.670;2023-02-13T16:38:53;17.47;;;10.90;;
64595;SDS011;51003;51.628;6.670;2023-02-13T16:46:36;13.50;;;9.13;;
64595;SDS011;51003;51.628;6.670;2023-02-13T16:51:45;18.97;;;10.60;;
64595;SDS011;51003;51.628;6.670;2023-02-13T16:56:55;19.07;;;11.10;;
64595;SDS011;51003;51.628;6.670;2023-02-13T17:04:31;19.00;;;9.50;;
64595;SDS011;51003;51.628;6.670;2023-02-13T17:06:57;13.17;;;8.80;;
64595;SDS011;51003;51.628;6.670;2023-02-13T17:09:22;15.60;;;8.87;;
64595;SDS011;51003;51.628;6.670;2023-02-13T17:11:51;15.00;;;9.00;;
64595;SDS011;51003;51.628;6.670;2023-02-13T17:14:17;20.03;;;9.27;;
64595;SDS011;51003;51.628;6.670;2023-02-13T17:20:07;14.67;;;8.97;;
64595;SDS011;51003;51.628;6.670;2023-02-13T17:22:53;24.37;;;8.73;;
64595;SDS011;51003;51.628;6.670;2023-02-13T17:25:29;17.03;;;8.10;;
64595;SDS011;51003;51.628;6.670;2023-02-13T17:27:59;21.37;;;8.93;;
64595;SDS011;51003;51.628;6.670;2023-02-13T17:30:28;13.27;;;8.80;;
64595;SDS011;51003;51.628;6.670;2023-02-13T17:32:58;15.60;;;8.67;;
64595;SDS011;51003;51.628;6.670;2023-02-13T17:35:28;13.17;;;8.17;;
64595;SDS011;51003;51.628;6.670;2023-02-13T17:37:54;15.17;;;8.63;;
64595;SDS011;51003;51.628;6.670;2023-02-13T17:40:20;12.27;;;7.90;;
64595;SDS011;51003;51.628;6.670;2023-02-13T17:42:51;19.10;;;8.53;;
64595;SDS011;51003;51.628;6.670;2023-02-13T17:45:19;10.67;;;7.90;;
64595;SDS011;51003;51.628;6.670;2023-02-13T17:47:45;16.87;;;8.83;;
64595;SDS011;51003;51.628;6.670;2023-02-13T17:50:11;14.30;;;8.53;;
64595;SDS011;51003;51.628;6.670;2023-02-13T17:52:37;16.47;;;8.80;;
64595;SDS011;51003;51.628;6.670;2023-02-13T17:55:04;16.50;;;8.73;;
64595;SDS011;51003;51.628;6.670;2023-02-13T17:57:30;19.63;;;9.40;;
64595;SDS011;51003;51.628;6.670;2023-02-13T17:59:56;14.70;;;9.10;;
64595;SDS011;51003;51.628;6.670;2023-02-13T18:02:23;17.10;;;10.40;;
64595;SDS011;51003;51.628;6.670;2023-02-13T18:04:50;19.20;;;10.20;;
64595;SDS011;51003;51.628;6.670;2023-02-13T18:07:17;19.83;;;10.53;;
64595;SDS011;51003;51.628;6.670;2023-02-13T18:09:44;16.73;;;9.70;;
64595;SDS011;51003;51.628;6.670;2023-02-13T18:12:11;19.63;;;10.83;;
64595;SDS011;51003;51.628;6.670;2023-02-13T18:14:38;17.50;;;9.73;;
64595;SDS011;51003;51.628;6.670;2023-02-13T18:17:03;21.07;;;10.77;;
64595;SDS011;51003;51.628;6.670;2023-02-13T18:19:29;17.47;;;10.37;;
64595;SDS011;51003;51.628;6.670;2023-02-13T18:21:54;18.10;;;10.17;;
64595;SDS011;51003;51.628;6.670;2023-02-13T18:24:20;17.83;;;10.07;;
64595;SDS011;51003;51.628;6.670;2023-02-13T18:26:45;21.27;;;9.90;;
64595;SDS011;51003;51.628;6.670;2023-02-13T18:29:10;15.83;;;9.50;;
64595;SDS011;51003;51.628;6.670;2023-02-13T18:31:36;17.00;;;9.73;;
64595;SDS011;51003;51.628;6.670;2023-02-13T18:34:01;13.70;;;9.10;;
64595;SDS011;51003;51.628;6.670;2023-02-13T18:36:26;16.93;;;9.40;;
64595;SDS011;51003;51.628;6.670;2023-02-13T18:38:52;20.87;;;11.10;;
64595;SDS011;51003;51.628;6.670;2023-02-13T18:41:18;16.43;;;9.50;;
64595;SDS011;51003;51.628;6.670;2023-02-13T18:43:44;14.97;;;9.43;;
64595;SDS011;51003;51.628;6.670;2023-02-13T18:46:09;16.73;;;9.70;;
64595;SDS011;51003;51.628;6.670;2023-02-13T18:48:35;17.60;;;8.90;;
64595;SDS011;51003;51.628;6.670;2023-02-13T18:51:00;14.60;;;9.17;;
64595;SDS011;51003;51.628;6.670;2023-02-13T18:53:26;15.73;;;9.10;;
64595;SDS011;51003;51.628;6.670;2023-02-13T18:55:59;13.30;;;8.67;;
64595;SDS011;51003;51.628;6.670;2023-02-13T18:58:30;14.70;;;9.70;;
64595;SDS011;51003;51.628;6.670;2023-02-13T19:01:03;17.23;;;8.83;;
64595;SDS011;51003;51.628;6.670;2023-02-13T19:03:32;17.20;;;8.97;;
64595;SDS011;51003;51.628;6.670;2023-02-13T19:05:57;14.20;;;9.10;;
64595;SDS011;51003;51.628;6.670;2023-02-13T19:08:23;15.37;;;9.70;;
64595;SDS011;51003;51.628;6.670;2023-02-13T19:10:48;16.77;;;9.97;;
64595;SDS011;51003;51.628;6.670;2023-02-13T19:13:14;17.70;;;10.73;;
64595;SDS011;51003;51.628;6.670;2023-02-13T19:15:39;17.73;;;10.27;;
64595;SDS011;51003;51.628;6.670;2023-02-13T19:18:04;19.50;;;11.50;;
64595;SDS011;51003;51.628;6.670;2023-02-13T19:20:30;16.60;;;10.80;;
64595;SDS011;51003;51.628;6.670;2023-02-13T19:22:55;16.70;;;10.77;;
64595;SDS011;51003;51.628;6.670;2023-02-13T19:25:21;16.90;;;10.60;;
64595;SDS011;51003;51.628;6.670;2023-02-13T19:27:46;19.60;;;11.33;;
64595;SDS011;51003;51.628;6.670;2023-02-13T19:30:11;18.90;;;11.23;;
64595;SDS011;51003;51.628;6.670;2023-02-13T19:32:37;17.90;;;10.43;;
64595;SDS011;51003;51.628;6.670;2023-02-13T19:35:02;16.70;;;10.70;;
64595;SDS011;51003;51.628;6.670;2023-02-13T19:37:28;17.77;;;11.70;;
64595;SDS011;51003;51.628;6.670;2023-02-13T19:39:54;20.50;;;12.73;;
64595;SDS011;51003;51.628;6.670;2023-02-13T19:42:19;23.83;;;13.67;;
64595;SDS011;51003;51.628;6.670;2023-02-13T19:44:44;19.40;;;12.00;;
64595;SDS011;51003;51.628;6.670;2023-02-13T19:47:10;25.17;;;12.10;;
64595;SDS011;51003;51.628;6.670;2023-02-13T19:49:35;20.47;;;11.67;;
64595;SDS011;51003;51.628;6.670;2023-02-13T19:52:00;21.73;;;12.00;;
64595;SDS011;51003;51.628;6.670;2023-02-13T19:54:27;25.40;;;13.00;;
64595;SDS011;51003;51.628;6.670;2023-02-13T19:56:53;21.90;;;12.37;;
64595;SDS011;51003;51.628;6.670;2023-02-13T19:59:24;20.70;;;12.30;;
64595;SDS011;51003;51.628;6.670;2023-02-13T20:01:52;18.63;;;11.43;;
64595;SDS011;51003;51.628;6.670;2023-02-13T20:04:18;24.20;;;12.10;;
64595;SDS011;51003;51.628;6.670;2023-02-13T20:06:44;20.40;;;12.10;;
64595;SDS011;51003;51.628;6.670;2023-02-13T20:09:10;23.30;;;13.53;;
64595;SDS011;51003;51.628;6.670;2023-02-13T20:11:41;33.93;;;18.90;;
64595;SDS011;51003;51.628;6.670;2023-02-13T20:14:07;28.90;;;16.17;;
64595;SDS011;51003;51.628;6.670;2023-02-13T20:16:38;24.97;;;14.43;;
64595;SDS011;51003;51.628;6.670;2023-02-13T20:19:04;27.60;;;15.33;;
64595;SDS011;51003;51.628;6.670;2023-02-13T20:21:33;24.33;;;13.07;;
64595;SDS011;51003;51.628;6.670;2023-02-13T20:23:59;24.07;;;14.00;;
64595;SDS011;51003;51.628;6.670;2023-02-13T20:26:25;22.03;;;12.10;;
64595;SDS011;51003;51.628;6.670;2023-02-13T20:28:51;20.23;;;12.47;;
64595;SDS011;51003;51.628;6.670;2023-02-13T20:31:18;16.63;;;10.70;;
64595;SDS011;51003;51.628;6.670;2023-02-13T20:33:44;21.50;;;11.57;;
64595;SDS011;51003;51.628;6.670;2023-02-13T20:36:15;21.77;;;11.00;;
64595;SDS011;51003;51.628;6.670;2023-02-13T20:38:44;18.10;;;10.93;;
64595;SDS011;51003;51.628;6.670;2023-02-13T20:41:11;25.10;;;11.50;;
64595;SDS011;51003;51.628;6.670;2023-02-13T20:43:36;20.07;;;11.43;;
64595;SDS011;51003;51.628;6.670;2023-02-13T20:46:02;18.50;;;11.33;;
64595;SDS011;51003;51.628;6.670;2023-02-13T20:48:27;16.60;;;10.23;;
64595;SDS011;51003;51.628;6.670;2023-02-13T20:50:59;17.40;;;11.30;;
64595;SDS011;51003;51.628;6.670;2023-02-13T20:53:26;20.23;;;12.40;;
64595;SDS011;51003;51.628;6.670;2023-02-13T20:55:52;21.10;;;12.33;;
64595;SDS011;51003;51.628;6.670;2023-02-13T20:58:18;21.07;;;12.70;;
64595;SDS011;51003;51.628;6.670;2023-02-13T21:00:43;18.47;;;11.60;;
64595;SDS011;51003;51.628;6.670;2023-02-13T21:03:09;17.67;;;11.33;;
64595;SDS011;51003;51.628;6.670;2023-02-13T21:05:34;18.17;;;11.77;;
64595;SDS011;51003;51.628;6.670;2023-02-13T21:08:00;19.37;;;11.27;;
64595;SDS011;51003;51.628;6.670;2023-02-13T21:10:25;20.07;;;11.70;;
64595;SDS011;51003;51.628;6.670;2023-02-13T21:12:51;19.93;;;11.33;;
64595;SDS011;51003;51.628;6.670;2023-02-13T21:15:16;18.90;;;10.90;;
64595;SDS011;51003;51.628;6.670;2023-02-13T21:17:42;23.50;;;11.30;;
64595;SDS011;51003;51.628;6.670;2023-02-13T21:20:09;21.20;;;10.90;;
64595;SDS011;51003;51.628;6.670;2023-02-13T21:22:35;19.33;;;10.80;;
64595;SDS011;51003;51.628;6.670;2023-02-13T21:25:00;19.13;;;11.17;;
64595;SDS011;51003;51.628;6.670;2023-02-13T21:27:26;17.83;;;10.50;;
64595;SDS011;51003;51.628;6.670;2023-02-13T21:29:52;19.60;;;11.00;;
64595;SDS011;51003;51.628;6.670;2023-02-13T21:32:18;15.23;;;9.87;;
64595;SDS011;51003;51.628;6.670;2023-02-13T21:34:43;15.77;;;9.23;;
64595;SDS011;51003;51.628;6.670;2023-02-13T21:37:08;18.83;;;10.80;;
64595;SDS011;51003;51.628;6.670;2023-02-13T21:39:34;18.50;;;10.00;;
64595;SDS011;51003;51.628;6.670;2023-02-13T21:42:00;19.37;;;12.00;;
64595;SDS011;51003;51.628;6.670;2023-02-13T21:44:25;22.30;;;11.80;;
64595;SDS011;51003;51.628;6.670;2023-02-13T21:46:51;28.23;;;15.87;;
64595;SDS011;51003;51.628;6.670;2023-02-13T21:49:16;36.63;;;20.17;;
64595;SDS011;51003;51.628;6.670;2023-02-13T21:51:43;32.57;;;17.70;;
64595;SDS011;51003;51.628;6.670;2023-02-13T21:54:08;34.07;;;19.23;;
64595;SDS011;51003;51.628;6.670;2023-02-13T21:56:35;32.13;;;19.07;;
64595;SDS011;51003;51.628;6.670;2023-02-13T21:59:01;32.80;;;17.87;;
64595;SDS011;51003;51.628;6.670;2023-02-13T22:01:28;29.87;;;17.40;;
64595;SDS011;51003;51.628;6.670;2023-02-13T22:03:59;37.80;;;19.97;;
64595;SDS011;51003;51.628;6.670;2023-02-13T22:06:29;33.50;;;17.80;;
64595;SDS011;51003;51.628;6.670;2023-02-13T22:08:56;30.77;;;16.10;;
64595;SDS011;51003;51.628;6.670;2023-02-13T22:11:23;29.60;;;16.90;;
64595;SDS011;51003;51.628;6.670;2023-02-13T22:13:48;28.53;;;15.37;;
64595;SDS011;51003;51.628;6.670;2023-02-13T22:16:18;27.33;;;15.07;;
64595;SDS011;51003;51.628;6.670;2023-02-13T22:18:43;28.93;;;14.90;;
64595;SDS011;51003;51.628;6.670;2023-02-13T22:21:13;23.70;;;13.30;;
64595;SDS011;51003;51.628;6.670;2023-02-13T22:23:40;24.70;;;13.20;;
64595;SDS011;51003;51.628;6.670;2023-02-13T22:26:06;19.40;;;11.83;;
64595;SDS011;51003;51.628;6.670;2023-02-13T22:28:32;23.60;;;12.83;;
64595;SDS011;51003;51.628;6.670;2023-02-13T22:30:57;22.13;;;13.40;;
64595;SDS011;51003;51.628;6.670;2023-02-13T22:33:23;23.70;;;13.40;;
64595;SDS011;51003;51.628;6.670;2023-02-13T22:35:48;18.40;;;11.20;;
64595;SDS011;51003;51.628;6.670;2023-02-13T22:38:13;19.70;;;11.53;;
64595;SDS011;51003;51.628;6.670;2023-02-13T22:40:39;22.90;;;11.20;;
64595;SDS011;51003;51.628;6.670;2023-02-13T22:43:04;21.00;;;11.67;;
64595;SDS011;51003;51.628;6.670;2023-02-13T22:45:34;17.83;;;10.60;;
64595;SDS011;51003;51.628;6.670;2023-02-13T22:48:00;20.53;;;11.27;;
64595;SDS011;51003;51.628;6.670;2023-02-13T22:50:25;18.93;;;10.37;;
64595;SDS011;51003;51.628;6.670;2023-02-13T22:52:51;16.43;;;9.83;;
64595;SDS011;51003;51.628;6.670;2023-02-13T22:55:16;16.90;;;9.80;;
64595;SDS011;51003;51.628;6.670;2023-02-13T22:57:42;18.07;;;10.17;;
64595;SDS011;51003;51.628;6.670;2023-02-13T23:00:07;18.27;;;10.57;;
64595;SDS011;51003;51.628;6.670;2023-02-13T23:02:33;17.33;;;10.17;;
64595;SDS011;51003;51.628;6.670;2023-02-13T23:04:59;16.10;;;9.93;;
64595;SDS011;51003;51.628;6.670;2023-02-13T23:07:25;15.97;;;9.87;;
64595;SDS011;51003;51.628;6.670;2023-02-13T23:09:50;20.87;;;9.50;;
64595;SDS011;51003;51.628;6.670;2023-02-13T23:12:15;16.20;;;9.73;;
64595;SDS011;51003;51.628;6.670;2023-02-13T23:14:59;15.63;;;9.63;;
64595;SDS011;51003;51.628;6.670;2023-02-13T23:17:25;16.53;;;9.50;;
64595;SDS011;51003;51.628;6.670;2023-02-13T23:20:26;19.77;;;10.23;;
64595;SDS011;51003;51.628;6.670;2023-02-13T23:22:52;14.27;;;8.43;;
64595;SDS011;51003;51.628;6.670;2023-02-13T23:25:18;13.63;;;7.67;;
64595;SDS011;51003;51.628;6.670;2023-02-13T23:27:43;11.53;;;7.40;;
64595;SDS011;51003;51.628;6.670;2023-02-13T23:30:09;13.03;;;8.00;;
64595;SDS011;51003;51.628;6.670;2023-02-13T23:32:35;13.00;;;8.20;;
64595;SDS011;51003;51.628;6.670;2023-02-13T23:35:01;16.07;;;8.10;;
64595;SDS011;51003;51.628;6.670;2023-02-13T23:37:26;11.00;;;7.50;;
64595;SDS011;51003;51.628;6.670;2023-02-13T23:39:51;15.73;;;8.03;;
64595;SDS011;51003;51.628;6.670;2023-02-13T23:42:17;11.73;;;6.67;;
64595;SDS011;51003;51.628;6.670;2023-02-13T23:44:42;11.00;;;7.27;;
64595;SDS011;51003;51.628;6.670;2023-02-13T23:47:07;11.50;;;7.00;;
64595;SDS011;51003;51.628;6.670;2023-02-13T23:49:33;12.73;;;7.30;;
64595;SDS011;51003;51.628;6.670;2023-02-13T23:51:59;10.20;;;6.97;;
64595;SDS011;51003;51.628;6.670;2023-02-13T23:54:25;11.30;;;7.30;;
64595;SDS011;51003;51.628;6.670;2023-02-13T23:56:51;15.10;;;7.30;;
64595;SDS011;51003;51.628;6.670;2023-02-13T23:59:17;12.83;;;7.60;;
